Time;durP1;ratioP1;P1;durP2;ratioP2;P2;SDS_P1;SDS_P2;PMS_P1;PMS_P2;Temp;Humidity;BMP_temperature;BMP_pressure;BME280_temperature;BME280_humidity;BME280_pressure;Samples;Min_cycle;Max_cycle;Signal;HPM_P1;HPM_P2
2022/10/22 00:00:22;;;;;;;17.55;8.27;;;;;;;;;;4930055;28;20503;-96
2022/10/22 00:02:48;;;;;;;21.27;7.68;;;;;;;;;;4960824;28;20074;-95
2022/10/22 00:05:14;;;;;;;15.27;8.05;;;;;;;;;;4927840;28;20114;-96
2022/10/22 00:07:40;;;;;;;21.70;8.32;;;;;;;;;;4937821;28;20043;-96
2022/10/22 00:10:09;;;;;;;22.67;8.18;;;;;;;;;;4927221;28;20039;-96
2022/10/22 00:12:36;;;;;;;18.35;8.23;;;;;;;;;;4944995;28;20569;-96
2022/10/22 00:15:02;;;;;;;16.23;8.27;;;;;;;;;;4946854;28;20035;-96
2022/10/22 00:17:28;;;;;;;13.25;7.05;;;;;;;;;;4929906;28;20035;-96
2022/10/22 00:19:54;;;;;;;14.23;7.97;;;;;;;;;;4926807;28;20043;-95
2022/10/22 00:22:21;;;;;;;19.00;8.48;;;;;;;;;;4956908;28;20027;-96
2022/10/22 00:24:47;;;;;;;16.95;7.57;;;;;;;;;;4932399;29;20066;-96
2022/10/22 00:27:13;;;;;;;17.13;8.18;;;;;;;;;;4929362;28;20051;-95
2022/10/22 00:29:39;;;;;;;15.52;7.32;;;;;;;;;;4929088;28;20047;-96
2022/10/22 00:32:05;;;;;;;24.67;8.07;;;;;;;;;;4927243;28;20561;-95
2022/10/22 00:34:32;;;;;;;18.55;7.90;;;;;;;;;;4944095;28;20484;-96
2022/10/22 00:36:58;;;;;;;17.98;8.95;;;;;;;;;;4923842;28;20086;-95
2022/10/22 00:39:25;;;;;;;18.63;8.52;;;;;;;;;;4947035;28;20574;-96
2022/10/22 00:41:52;;;;;;;18.23;8.18;;;;;;;;;;4959148;28;20027;-95
2022/10/22 00:44:36;;;;;;;19.90;8.02;;;;;;;;;;4960101;28;20031;-96
2022/10/22 00:47:03;;;;;;;18.05;8.57;;;;;;;;;;4946669;28;20027;-96
2022/10/22 00:49:29;;;;;;;12.52;7.75;;;;;;;;;;4944928;28;20511;-95
2022/10/22 00:51:55;;;;;;;22.00;8.60;;;;;;;;;;4947791;28;20566;-95
2022/10/22 00:54:21;;;;;;;17.63;8.13;;;;;;;;;;4933901;28;20450;-96
2022/10/22 00:56:48;;;;;;;14.15;7.22;;;;;;;;;;4929302;29;20487;-95
2022/10/22 00:59:17;;;;;;;17.30;7.63;;;;;;;;;;4949384;28;20252;-96
2022/10/22 01:01:52;;;;;;;19.60;8.27;;;;;;;;;;4935554;28;20042;-95
2022/10/22 01:04:19;;;;;;;18.05;8.30;;;;;;;;;;4935315;28;20069;-96
2022/10/22 01:06:46;;;;;;;15.98;7.78;;;;;;;;;;4933660;28;20372;-95
2022/10/22 01:09:25;;;;;;;20.20;8.48;;;;;;;;;;4934726;28;20546;-96
2022/10/22 01:12:01;;;;;;;14.88;7.53;;;;;;;;;;4949556;28;20031;-96
2022/10/22 01:14:33;;;;;;;16.83;8.23;;;;;;;;;;4932155;28;21748;-96
2022/10/22 01:17:05;;;;;;;21.23;7.70;;;;;;;;;;4965313;28;20079;-96
2022/10/22 01:19:31;;;;;;;22.73;9.02;;;;;;;;;;4949740;28;20125;-96
2022/10/22 01:22:10;;;;;;;23.75;9.85;;;;;;;;;;4950085;28;20118;-96
2022/10/22 01:24:55;;;;;;;14.48;7.82;;;;;;;;;;4951862;28;20037;-96
2022/10/22 01:27:26;;;;;;;17.13;7.43;;;;;;;;;;4964595;28;20514;-96
2022/10/22 01:30:01;;;;;;;19.08;8.20;;;;;;;;;;4952848;28;20035;-96
2022/10/22 01:32:30;;;;;;;14.38;8.13;;;;;;;;;;4966331;28;20053;-96
2022/10/22 01:35:00;;;;;;;15.95;7.43;;;;;;;;;;4946645;28;20070;-96
2022/10/22 01:37:29;;;;;;;19.88;7.70;;;;;;;;;;4934666;28;20043;-95
2022/10/22 01:39:56;;;;;;;15.05;7.88;;;;;;;;;;4954791;28;20027;-96
2022/10/22 01:42:29;;;;;;;15.70;7.25;;;;;;;;;;4944554;28;20031;-95
2022/10/22 01:45:09;;;;;;;22.23;7.82;;;;;;;;;;4950725;28;20020;-96
2022/10/22 01:47:42;;;;;;;20.20;7.45;;;;;;;;;;4953449;28;20087;-94
2022/10/22 01:50:08;;;;;;;15.88;7.38;;;;;;;;;;4957581;28;20140;-96
2022/10/22 01:52:51;;;;;;;13.52;7.05;;;;;;;;;;4935731;28;20044;-96
2022/10/22 01:55:17;;;;;;;22.08;7.03;;;;;;;;;;4961643;28;20043;-96
2022/10/22 01:57:52;;;;;;;16.98;7.70;;;;;;;;;;4940680;28;20035;-95
2022/10/22 02:00:19;;;;;;;18.33;7.93;;;;;;;;;;4947030;28;20122;-95
2022/10/22 02:02:53;;;;;;;16.58;7.75;;;;;;;;;;4957286;28;20027;-95
2022/10/22 02:05:19;;;;;;;21.52;8.95;;;;;;;;;;4954841;28;20082;-96
2022/10/22 02:07:57;;;;;;;26.13;9.30;;;;;;;;;;4945293;28;20042;-95
2022/10/22 02:10:26;;;;;;;23.75;8.93;;;;;;;;;;4936295;28;20035;-94
2022/10/22 02:12:54;;;;;;;24.40;9.88;;;;;;;;;;4951818;28;20035;-96
2022/10/22 02:15:21;;;;;;;31.65;9.70;;;;;;;;;;4949211;28;20042;-96
2022/10/22 02:17:47;;;;;;;22.88;9.80;;;;;;;;;;4944646;28;20031;-96
2022/10/22 02:20:23;;;;;;;22.45;9.85;;;;;;;;;;4915930;28;20094;-95
2022/10/22 02:22:50;;;;;;;24.48;8.60;;;;;;;;;;4946083;28;20465;-95
2022/10/22 02:25:17;;;;;;;20.35;9.00;;;;;;;;;;4946845;28;20042;-95
2022/10/22 02:27:48;;;;;;;18.33;9.95;;;;;;;;;;4931681;28;20046;-96
2022/10/22 02:30:16;;;;;;;22.40;9.40;;;;;;;;;;4956325;28;20519;-96
2022/10/22 02:32:50;;;;;;;32.83;10.20;;;;;;;;;;4946673;28;20492;-95
2022/10/22 02:35:18;;;;;;;18.60;9.30;;;;;;;;;;4938403;28;20043;-96
2022/10/22 02:37:45;;;;;;;22.38;9.60;;;;;;;;;;4952682;28;20040;-96
2022/10/22 02:40:11;;;;;;;25.55;9.82;;;;;;;;;;4932464;29;20130;-96
2022/10/22 02:42:38;;;;;;;26.45;10.05;;;;;;;;;;4957563;28;20132;-95
2022/10/22 02:45:05;;;;;;;27.15;9.90;;;;;;;;;;4964306;28;20037;-96
2022/10/22 02:47:31;;;;;;;29.05;10.20;;;;;;;;;;4930224;29;20054;-96
2022/10/22 02:49:57;;;;;;;29.30;11.07;;;;;;;;;;4927583;28;20431;-96
2022/10/22 02:52:23;;;;;;;28.33;9.82;;;;;;;;;;4931356;29;20043;-96
2022/10/22 02:54:50;;;;;;;29.27;9.27;;;;;;;;;;4935381;28;20090;-94
2022/10/22 02:57:16;;;;;;;24.77;8.93;;;;;;;;;;4933042;28;20058;-95
2022/10/22 02:59:42;;;;;;;30.80;9.80;;;;;;;;;;4956332;29;20091;-95
2022/10/22 03:02:08;;;;;;;27.02;9.35;;;;;;;;;;4938395;28;20061;-94
2022/10/22 03:04:34;;;;;;;17.13;8.45;;;;;;;;;;4936778;29;20090;-94
2022/10/22 03:07:00;;;;;;;17.45;8.82;;;;;;;;;;4959500;28;20035;-95
2022/10/22 03:09:27;;;;;;;19.67;9.23;;;;;;;;;;4958653;28;20404;-95
2022/10/22 03:11:53;;;;;;;19.90;9.95;;;;;;;;;;4941604;28;20050;-95
2022/10/22 03:14:19;;;;;;;24.35;8.80;;;;;;;;;;4952551;28;20039;-96
2022/10/22 03:16:46;;;;;;;19.60;9.13;;;;;;;;;;4952373;28;20036;-95
2022/10/22 03:19:12;;;;;;;22.67;10.90;;;;;;;;;;4936835;28;20381;-96
2022/10/22 03:21:53;;;;;;;22.08;10.88;;;;;;;;;;4936421;28;20026;-96
2022/10/22 03:24:22;;;;;;;23.23;10.63;;;;;;;;;;4946663;28;20507;-95
2022/10/22 03:26:50;;;;;;;15.50;8.73;;;;;;;;;;4961975;28;20043;-96
2022/10/22 03:29:17;;;;;;;22.48;9.60;;;;;;;;;;4952166;28;20110;-96
2022/10/22 03:31:43;;;;;;;22.20;8.45;;;;;;;;;;4963413;28;20035;-95
2022/10/22 03:34:10;;;;;;;18.65;10.07;;;;;;;;;;4932566;29;20043;-96
2022/10/22 03:36:37;;;;;;;22.90;9.63;;;;;;;;;;4929243;29;20042;-96
2022/10/22 03:39:04;;;;;;;27.08;9.25;;;;;;;;;;4929861;28;20094;-96
2022/10/22 03:41:30;;;;;;;27.02;10.93;;;;;;;;;;4950088;28;20032;-95
2022/10/22 03:44:03;;;;;;;27.35;10.80;;;;;;;;;;4933957;28;20051;-95
2022/10/22 03:46:30;;;;;;;27.05;10.52;;;;;;;;;;4942340;28;20395;-96
2022/10/22 03:48:56;;;;;;;21.27;10.00;;;;;;;;;;4947321;28;20419;-96
2022/10/22 03:51:22;;;;;;;36.60;12.63;;;;;;;;;;4927359;29;20518;-96
2022/10/22 03:53:48;;;;;;;27.88;9.52;;;;;;;;;;4948407;28;20423;-95
2022/10/22 03:56:14;;;;;;;32.92;10.73;;;;;;;;;;4934932;29;20039;-96
2022/10/22 03:58:41;;;;;;;24.80;9.98;;;;;;;;;;4925687;29;20046;-95
2022/10/22 04:01:08;;;;;;;20.38;10.32;;;;;;;;;;4952415;28;20023;-96
2022/10/22 04:03:34;;;;;;;27.98;11.13;;;;;;;;;;4951608;28;20063;-96
2022/10/22 04:06:01;;;;;;;28.48;10.88;;;;;;;;;;4928827;29;20581;-95
2022/10/22 04:08:27;;;;;;;23.85;10.10;;;;;;;;;;4931235;28;20059;-96
2022/10/22 04:10:56;;;;;;;28.08;10.15;;;;;;;;;;4933097;29;20035;-96
2022/10/22 04:13:22;;;;;;;23.05;9.30;;;;;;;;;;4946926;28;20124;-95
2022/10/22 04:15:50;;;;;;;21.73;9.20;;;;;;;;;;4934395;29;20371;-96
2022/10/22 04:18:19;;;;;;;32.75;8.68;;;;;;;;;;4946667;28;20031;-95
2022/10/22 04:20:45;;;;;;;22.00;8.65;;;;;;;;;;4944624;28;20074;-95
2022/10/22 04:23:11;;;;;;;24.58;10.23;;;;;;;;;;4935384;29;20054;-96
2022/10/22 04:25:37;;;;;;;21.48;8.70;;;;;;;;;;4959118;28;20027;-96
2022/10/22 04:28:06;;;;;;;21.85;9.50;;;;;;;;;;4933096;28;20035;-96
2022/10/22 04:30:32;;;;;;;28.88;10.63;;;;;;;;;;4949116;28;20089;-94
2022/10/22 04:32:58;;;;;;;23.88;8.80;;;;;;;;;;4942730;28;20036;-95
2022/10/22 04:35:24;;;;;;;21.23;8.40;;;;;;;;;;4961679;28;20459;-95
2022/10/22 04:37:51;;;;;;;25.60;10.05;;;;;;;;;;4953347;28;20090;-96
2022/10/22 04:40:17;;;;;;;25.67;10.20;;;;;;;;;;4930354;28;20042;-96
2022/10/22 04:42:43;;;;;;;31.23;10.10;;;;;;;;;;4946744;28;20067;-96
2022/10/22 04:45:09;;;;;;;21.60;9.93;;;;;;;;;;4952636;28;20035;-96
2022/10/22 04:47:36;;;;;;;21.83;9.65;;;;;;;;;;4942279;28;20550;-96
2022/10/22 04:50:02;;;;;;;23.00;9.50;;;;;;;;;;4948533;28;20023;-96
2022/10/22 04:52:28;;;;;;;19.92;9.38;;;;;;;;;;4939533;28;20038;-96
2022/10/22 04:54:54;;;;;;;23.50;10.05;;;;;;;;;;4938749;28;20122;-95
2022/10/22 04:57:20;;;;;;;22.63;9.25;;;;;;;;;;4937696;28;20039;-96
2022/10/22 04:59:46;;;;;;;30.02;10.68;;;;;;;;;;4938286;28;20121;-95
2022/10/22 05:02:12;;;;;;;25.25;9.23;;;;;;;;;;4938888;28;20123;-96
2022/10/22 05:04:38;;;;;;;20.23;9.88;;;;;;;;;;4935485;28;20203;-96
2022/10/22 05:07:07;;;;;;;27.98;11.32;;;;;;;;;;4937037;28;20081;-96
2022/10/22 05:09:33;;;;;;;31.30;10.25;;;;;;;;;;4953061;28;20058;-96
2022/10/22 05:12:00;;;;;;;29.08;10.80;;;;;;;;;;4953460;28;20027;-96
2022/10/22 05:14:26;;;;;;;30.73;10.13;;;;;;;;;;4943843;28;20043;-96
2022/10/22 05:16:52;;;;;;;27.73;10.55;;;;;;;;;;4948272;28;20122;-95
2022/10/22 05:19:23;;;;;;;21.70;10.35;;;;;;;;;;4963379;28;20525;-96
2022/10/22 05:21:49;;;;;;;23.08;9.27;;;;;;;;;;4950601;28;20022;-95
2022/10/22 05:24:16;;;;;;;24.92;10.18;;;;;;;;;;4951297;28;20026;-95
2022/10/22 05:26:42;;;;;;;34.85;11.27;;;;;;;;;;4949843;28;20122;-96
2022/10/22 05:29:08;;;;;;;20.30;9.95;;;;;;;;;;4934936;28;20078;-95
2022/10/22 05:31:34;;;;;;;25.45;10.48;;;;;;;;;;4937394;28;20564;-95
2022/10/22 05:34:00;;;;;;;26.55;10.25;;;;;;;;;;4950333;28;20037;-96
2022/10/22 05:36:26;;;;;;;27.52;10.05;;;;;;;;;;4936019;28;20497;-95
2022/10/22 05:38:53;;;;;;;26.08;10.63;;;;;;;;;;4954623;28;20035;-96
2022/10/22 05:41:21;;;;;;;21.60;10.30;;;;;;;;;;4937600;28;20066;-95
2022/10/22 05:43:47;;;;;;;27.52;10.48;;;;;;;;;;4927988;28;20057;-96
2022/10/22 05:46:21;;;;;;;23.35;9.93;;;;;;;;;;4943119;28;20251;-96
2022/10/22 05:48:51;;;;;;;19.95;10.38;;;;;;;;;;4958270;28;20039;-96
2022/10/22 05:51:17;;;;;;;35.67;10.55;;;;;;;;;;4928001;29;20039;-96
2022/10/22 05:53:43;;;;;;;26.10;10.95;;;;;;;;;;4951774;28;20042;-96
2022/10/22 05:56:14;;;;;;;29.13;11.02;;;;;;;;;;4932292;29;20035;-95
2022/10/22 05:58:40;;;;;;;24.02;9.43;;;;;;;;;;4943703;28;20032;-96
2022/10/22 06:01:08;;;;;;;31.27;12.50;;;;;;;;;;4945355;28;20518;-96
2022/10/22 06:03:34;;;;;;;22.90;10.80;;;;;;;;;;4948865;28;20110;-94
2022/10/22 06:06:01;;;;;;;30.13;10.68;;;;;;;;;;4931454;29;20035;-96
2022/10/22 06:08:27;;;;;;;33.38;10.90;;;;;;;;;;4946207;28;20031;-96
2022/10/22 06:10:54;;;;;;;24.25;11.43;;;;;;;;;;4947647;28;20529;-94
2022/10/22 06:13:21;;;;;;;19.55;9.57;;;;;;;;;;4929665;28;20121;-96
2022/10/22 06:15:47;;;;;;;24.85;10.52;;;;;;;;;;4933712;29;20027;-96
2022/10/22 06:18:13;;;;;;;25.48;9.88;;;;;;;;;;4926341;28;20137;-96
2022/10/22 06:20:42;;;;;;;23.63;10.75;;;;;;;;;;4949733;28;20597;-95
2022/10/22 06:23:08;;;;;;;30.83;11.20;;;;;;;;;;4931182;29;20027;-95
2022/10/22 06:25:34;;;;;;;24.00;10.63;;;;;;;;;;4947678;28;20043;-96
2022/10/22 06:28:00;;;;;;;21.95;10.40;;;;;;;;;;4928289;28;20093;-96
2022/10/22 06:30:26;;;;;;;25.92;10.50;;;;;;;;;;4930460;29;20063;-95
2022/10/22 06:32:52;;;;;;;22.65;6.97;;;;;;;;;;4942337;28;20490;-95
2022/10/22 06:35:18;;;;;;;23.42;9.13;;;;;;;;;;4925061;28;20070;-96
2022/10/22 06:37:46;;;;;;;27.40;8.85;;;;;;;;;;4931924;28;20403;-96
2022/10/22 06:40:12;;;;;;;24.98;9.25;;;;;;;;;;4932053;28;20039;-96
2022/10/22 06:42:38;;;;;;;29.45;9.80;;;;;;;;;;4949635;28;20031;-95
2022/10/22 06:45:17;;;;;;;21.98;8.95;;;;;;;;;;4933005;28;20051;-95
2022/10/22 06:47:43;;;;;;;19.10;9.13;;;;;;;;;;4947428;28;20581;-95
2022/10/22 06:50:09;;;;;;;16.67;9.00;;;;;;;;;;4950791;28;20038;-95
2022/10/22 06:52:35;;;;;;;21.60;9.68;;;;;;;;;;4935790;28;20045;-95
2022/10/22 06:55:04;;;;;;;30.88;9.80;;;;;;;;;;4939114;28;20030;-96
2022/10/22 06:57:30;;;;;;;19.23;8.55;;;;;;;;;;4932060;28;20035;-95
2022/10/22 06:59:56;;;;;;;23.15;8.85;;;;;;;;;;4932559;28;20047;-95
2022/10/22 07:02:24;;;;;;;25.60;10.25;;;;;;;;;;4953781;28;20031;-95
2022/10/22 07:04:50;;;;;;;23.95;9.82;;;;;;;;;;4948709;28;20035;-95
2022/10/22 07:07:16;;;;;;;19.58;8.02;;;;;;;;;;4953829;28;20121;-96
2022/10/22 07:09:44;;;;;;;16.95;8.20;;;;;;;;;;4948237;28;20034;-96
2022/10/22 07:12:11;;;;;;;21.67;7.55;;;;;;;;;;4930650;28;20138;-95
2022/10/22 07:14:37;;;;;;;18.05;8.00;;;;;;;;;;4944353;28;20091;-95
2022/10/22 07:17:04;;;;;;;14.55;7.35;;;;;;;;;;4934820;28;20822;-95
2022/10/22 07:19:30;;;;;;;18.95;7.18;;;;;;;;;;4934797;28;20173;-96
2022/10/22 07:21:56;;;;;;;18.70;6.22;;;;;;;;;;4933111;28;20126;-95
2022/10/22 07:24:22;;;;;;;14.77;6.25;;;;;;;;;;4937024;28;20037;-96
2022/10/22 07:26:48;;;;;;;15.85;6.47;;;;;;;;;;4952378;28;20045;-96
2022/10/22 07:29:14;;;;;;;13.82;6.97;;;;;;;;;;4955567;28;20035;-96
2022/10/22 07:31:41;;;;;;;15.50;6.07;;;;;;;;;;4925913;28;20038;-96
2022/10/22 07:34:07;;;;;;;20.50;7.07;;;;;;;;;;4937954;28;20041;-95
2022/10/22 07:36:33;;;;;;;17.90;6.88;;;;;;;;;;4962384;28;20027;-95
2022/10/22 07:38:59;;;;;;;14.43;6.13;;;;;;;;;;4951757;28;20023;-96
2022/10/22 07:41:29;;;;;;;14.70;6.82;;;;;;;;;;4935901;28;20058;-95
2022/10/22 07:43:59;;;;;;;18.58;6.53;;;;;;;;;;4933846;28;20104;-95
2022/10/22 07:46:29;;;;;;;12.48;6.20;;;;;;;;;;4932426;29;20039;-95
2022/10/22 07:48:55;;;;;;;13.68;5.95;;;;;;;;;;4931758;29;20142;-95
2022/10/22 07:51:22;;;;;;;18.30;6.45;;;;;;;;;;4953596;28;20039;-95
2022/10/22 07:53:48;;;;;;;16.60;5.68;;;;;;;;;;4951937;28;20031;-95
2022/10/22 07:56:14;;;;;;;16.13;7.07;;;;;;;;;;4935872;28;23522;-96
2022/10/22 07:58:40;;;;;;;19.02;6.50;;;;;;;;;;4938193;28;20035;-96
2022/10/22 08:01:06;;;;;;;7.70;4.88;;;;;;;;;;4932462;28;20399;-94
2022/10/22 08:03:32;;;;;;;25.52;7.72;;;;;;;;;;4952203;28;20039;-95
2022/10/22 08:05:59;;;;;;;13.70;4.45;;;;;;;;;;4951239;28;20031;-95
2022/10/22 08:08:25;;;;;;;18.80;5.97;;;;;;;;;;4932831;29;20047;-95
2022/10/22 08:10:52;;;;;;;18.08;4.95;;;;;;;;;;4937124;28;20041;-95
2022/10/22 08:13:18;;;;;;;18.75;6.05;;;;;;;;;;4932050;28;20039;-95
2022/10/22 08:15:45;;;;;;;17.60;5.78;;;;;;;;;;4942573;28;20031;-95
2022/10/22 08:18:12;;;;;;;10.52;4.85;;;;;;;;;;4965254;28;20047;-95
2022/10/22 08:20:38;;;;;;;17.10;5.65;;;;;;;;;;4951383;28;20125;-96
2022/10/22 08:23:04;;;;;;;11.05;5.65;;;;;;;;;;4924777;28;20027;-95
2022/10/22 08:25:30;;;;;;;13.07;5.35;;;;;;;;;;4948641;28;20113;-96
2022/10/22 08:27:56;;;;;;;17.30;5.47;;;;;;;;;;4947595;28;20501;-95
2022/10/22 08:30:26;;;;;;;24.42;6.15;;;;;;;;;;4949685;28;20119;-96
2022/10/22 08:32:52;;;;;;;17.60;5.80;;;;;;;;;;4945389;28;20049;-96
2022/10/22 08:35:19;;;;;;;14.23;5.80;;;;;;;;;;4946726;28;20213;-95
2022/10/22 08:37:45;;;;;;;15.80;5.32;;;;;;;;;;4928170;28;20085;-96
2022/10/22 08:40:21;;;;;;;14.65;5.78;;;;;;;;;;4944178;28;20355;-96
2022/10/22 08:43:03;;;;;;;13.18;6.15;;;;;;;;;;4947945;28;20039;-96
2022/10/22 08:45:32;;;;;;;20.10;4.75;;;;;;;;;;4957750;28;20054;-95
2022/10/22 08:47:58;;;;;;;8.15;3.88;;;;;;;;;;4959752;28;20039;-96
2022/10/22 08:53:46;;;;;;;10.73;3.67;;;;;;;;;;4942891;28;20166;-96
2022/10/22 08:56:16;;;;;;;11.82;4.20;;;;;;;;;;4944937;28;20044;-96
2022/10/22 08:58:48;;;;;;;13.43;4.18;;;;;;;;;;4952004;28;20213;-95
2022/10/22 09:01:15;;;;;;;18.73;4.35;;;;;;;;;;4948492;28;20027;-96
2022/10/22 09:03:57;;;;;;;15.05;4.10;;;;;;;;;;4947964;28;20194;-96
2022/10/22 09:06:24;;;;;;;11.95;4.80;;;;;;;;;;4941581;28;20028;-96
2022/10/22 09:08:51;;;;;;;14.02;4.53;;;;;;;;;;4949130;28;20042;-96
2022/10/22 09:11:47;;;;;;;16.13;4.25;;;;;;;;;;4948320;28;20024;-95
2022/10/22 09:14:17;;;;;;;11.48;4.10;;;;;;;;;;4943548;28;20146;-95
2022/10/22 09:16:43;;;;;;;15.50;4.88;;;;;;;;;;4945804;28;20027;-96
2022/10/22 09:19:19;;;;;;;7.38;3.13;;;;;;;;;;4954058;28;20074;-96
2022/10/22 09:21:52;;;;;;;11.68;3.55;;;;;;;;;;4942290;28;20066;-96
2022/10/22 09:24:32;;;;;;;10.50;3.50;;;;;;;;;;4960396;28;20030;-96
2022/10/22 09:27:14;;;;;;;11.07;3.00;;;;;;;;;;4946326;29;20334;-96
2022/10/22 09:29:43;;;;;;;14.60;3.45;;;;;;;;;;4945469;28;20232;-96
2022/10/22 09:32:39;;;;;;;9.95;3.50;;;;;;;;;;4949482;28;20387;-96
2022/10/22 09:35:11;;;;;;;8.07;3.80;;;;;;;;;;4958534;28;20342;-96
2022/10/22 09:37:53;;;;;;;6.65;2.97;;;;;;;;;;4947739;28;20399;-96
2022/10/22 09:40:23;;;;;;;11.32;4.03;;;;;;;;;;4959603;28;20078;-96
2022/10/22 09:43:19;;;;;;;12.82;3.10;;;;;;;;;;4958872;28;20038;-96
2022/10/22 09:45:59;;;;;;;15.25;3.70;;;;;;;;;;4931924;28;20498;-95
2022/10/22 09:48:36;;;;;;;9.20;2.80;;;;;;;;;;4930460;29;20028;-96
2022/10/22 09:54:40;;;;;;;8.63;3.05;;;;;;;;;;4912730;29;20095;-95
2022/10/22 09:57:43;;;;;;;9.45;3.40;;;;;;;;;;4923241;28;20055;-95
2022/10/22 10:00:34;;;;;;;14.88;4.10;;;;;;;;;;4927769;28;20040;-95
2022/10/22 10:03:40;;;;;;;15.70;5.57;;;;;;;;;;4928867;29;20032;-96
2022/10/22 10:06:27;;;;;;;10.27;3.67;;;;;;;;;;4950468;28;20039;-96
2022/10/22 10:09:25;;;;;;;;;;;;;;;;;;;;;
2022/10/22 10:12:09;;;;;;;15.88;3.72;;;;;;;;;;4943939;28;20046;-96
2022/10/22 10:15:12;;;;;;;14.02;3.53;;;;;;;;;;4949660;28;20122;-96
2022/10/22 10:17:50;;;;;;;17.52;3.30;;;;;;;;;;4931967;29;20039;-95
2022/10/22 10:20:34;;;;;;;21.52;3.80;;;;;;;;;;4944189;28;20050;-95
2022/10/22 10:23:19;;;;;;;11.77;3.38;;;;;;;;;;4946591;28;20867;-96
2022/10/22 10:29:14;;;;;;;10.55;2.60;;;;;;;;;;4950480;28;20046;-96
2022/10/22 10:31:59;;;;;;;11.10;3.65;;;;;;;;;;4933228;28;20040;-96
2022/10/22 10:34:44;;;;;;;9.43;3.25;;;;;;;;;;4946360;28;20487;-96
2022/10/22 10:37:16;;;;;;;12.00;4.40;;;;;;;;;;4930042;28;20039;-96
2022/10/22 10:39:56;;;;;;;6.30;3.10;;;;;;;;;;4944546;28;20031;-96
2022/10/22 10:42:41;;;;;;;16.95;4.25;;;;;;;;;;4948482;28;20042;-96
2022/10/22 10:45:18;;;;;;;9.65;3.30;;;;;;;;;;4927928;29;20047;-96
2022/10/22 10:47:59;;;;;;;12.05;4.10;;;;;;;;;;4957117;28;20031;-96
2022/10/22 10:50:30;;;;;;;14.25;4.20;;;;;;;;;;4947739;28;20067;-96
2022/10/22 10:53:09;;;;;;;11.88;4.20;;;;;;;;;;4946587;28;20040;-96
2022/10/22 10:55:39;;;;;;;11.10;4.00;;;;;;;;;;4949737;28;20059;-95
2022/10/22 10:58:05;;;;;;;16.00;4.43;;;;;;;;;;4923319;29;20027;-95
2022/10/22 11:00:38;;;;;;;23.45;4.90;;;;;;;;;;4957283;28;20040;-96
2022/10/22 11:03:25;;;;;;;14.93;4.78;;;;;;;;;;4958384;28;20023;-96
2022/10/22 11:05:54;;;;;;;14.93;4.22;;;;;;;;;;4945451;28;20019;-96
2022/10/22 11:11:52;;;;;;;15.25;4.75;;;;;;;;;;4941690;28;20047;-96
2022/10/22 11:14:38;;;;;;;10.13;3.97;;;;;;;;;;4942133;28;20526;-95
2022/10/22 11:17:05;;;;;;;;;;;;;;;;;;4935367;28;20315;-96
2022/10/22 11:19:37;;;;;;;10.48;3.95;;;;;;;;;;4950293;28;19914;-96
2022/10/22 11:22:23;;;;;;;15.38;4.60;;;;;;;;;;4931429;29;20031;-96
2022/10/22 11:24:59;;;;;;;14.15;4.55;;;;;;;;;;4961911;28;20507;-95
2022/10/22 11:27:29;;;;;;;11.60;4.40;;;;;;;;;;4947031;28;20035;-96
2022/10/22 11:30:08;;;;;;;21.58;4.70;;;;;;;;;;4948897;28;20039;-94
2022/10/22 11:32:35;;;;;;;11.05;3.92;;;;;;;;;;4954925;28;20047;-96
2022/10/22 11:35:06;;;;;;;10.18;4.40;;;;;;;;;;4946642;28;20431;-95
2022/10/22 11:37:33;;;;;;;14.35;4.35;;;;;;;;;;4950106;28;20450;-96
2022/10/22 11:40:20;;;;;;;14.57;4.30;;;;;;;;;;4947508;28;20103;-96
2022/10/22 11:42:46;;;;;;;;;;;;;;;;;;4944572;28;20491;-96
2022/10/22 11:45:15;;;;;;;19.45;4.05;;;;;;;;;;4952017;28;19922;-96
2022/10/22 11:47:56;;;;;;;11.00;4.88;;;;;;;;;;4950843;28;20484;-96
2022/10/22 11:50:45;;;;;;;8.10;4.07;;;;;;;;;;4950580;28;20031;-96
2022/10/22 11:53:11;;;;;;;10.05;3.70;;;;;;;;;;4955572;28;20035;-96
2022/10/22 11:55:44;;;;;;;11.00;5.28;;;;;;;;;;4946987;29;20027;-95
2022/10/22 11:58:43;;;;;;;8.82;3.83;;;;;;;;;;4945930;28;20039;-95
2022/10/22 12:01:12;;;;;;;20.98;4.97;;;;;;;;;;4949224;28;20020;-96
2022/10/22 12:04:14;;;;;;;11.15;5.25;;;;;;;;;;4962044;28;20019;-95
2022/10/22 12:06:54;;;;;;;16.20;5.07;;;;;;;;;;4859745;29;20078;-96
2022/10/22 12:09:23;;;;;;;16.15;5.50;;;;;;;;;;4923482;29;20047;-96
2022/10/22 12:11:50;;;;;;;10.10;4.75;;;;;;;;;;4948977;28;20063;-95
2022/10/22 12:14:19;;;;;;;17.05;5.25;;;;;;;;;;4948642;28;20043;-96
2022/10/22 12:16:51;;;;;;;11.70;5.53;;;;;;;;;;4961029;28;20036;-95
2022/10/22 12:19:31;;;;;;;11.38;4.82;;;;;;;;;;4949180;28;20043;-96
2022/10/22 12:22:18;;;;;;;8.15;4.88;;;;;;;;;;4943609;28;20023;-96
2022/10/22 12:24:44;;;;;;;;;;;;;;;;;;4948008;28;20066;-95
2022/10/22 12:27:35;;;;;;;13.88;3.92;;;;;;;;;;4948345;28;19960;-96
2022/10/22 12:30:02;;;;;;;6.95;3.33;;;;;;;;;;4949378;28;20507;-96
2022/10/22 12:32:37;;;;;;;12.40;5.05;;;;;;;;;;4948633;28;20415;-96
2022/10/22 12:35:08;;;;;;;16.50;5.27;;;;;;;;;;4962890;28;20042;-96
2022/10/22 12:37:35;;;;;;;13.35;4.50;;;;;;;;;;4944140;28;20028;-95
2022/10/22 12:40:23;;;;;;;15.73;4.53;;;;;;;;;;4947998;28;20039;-96
2022/10/22 12:42:50;;;;;;;10.90;4.68;;;;;;;;;;4944550;28;20059;-96
2022/10/22 12:45:17;;;;;;;8.43;4.25;;;;;;;;;;4958641;28;20110;-96
2022/10/22 12:47:46;;;;;;;11.05;4.07;;;;;;;;;;4947667;28;20039;-96
2022/10/22 12:50:25;;;;;;;4.97;2.60;;;;;;;;;;4928720;28;20085;-96
2022/10/22 12:52:54;;;;;;;17.05;4.00;;;;;;;;;;4960251;28;20514;-96
2022/10/22 12:55:24;;;;;;;19.83;4.85;;;;;;;;;;4967672;28;20030;-96
2022/10/22 12:57:50;;;;;;;17.30;4.80;;;;;;;;;;4961230;28;20039;-96
2022/10/22 13:00:24;;;;;;;17.77;4.68;;;;;;;;;;4949113;28;20035;-95
2022/10/22 13:02:52;;;;;;;17.47;5.10;;;;;;;;;;4945888;28;20027;-95
2022/10/22 13:05:32;;;;;;;13.60;4.75;;;;;;;;;;4956270;28;20037;-95
2022/10/22 13:08:09;;;;;;;11.00;5.10;;;;;;;;;;4932430;29;20035;-95
2022/10/22 13:10:36;;;;;;;12.45;4.13;;;;;;;;;;4944709;28;20042;-94
2022/10/22 13:13:05;;;;;;;14.85;5.28;;;;;;;;;;4956580;28;20023;-94
2022/10/22 13:15:35;;;;;;;9.30;4.30;;;;;;;;;;4948195;28;20388;-96
2022/10/22 13:18:06;;;;;;;12.93;4.28;;;;;;;;;;4943949;28;20340;-94
2022/10/22 13:20:36;;;;;;;10.98;3.85;;;;;;;;;;4958542;28;20469;-95
2022/10/22 13:23:03;;;;;;;19.40;3.60;;;;;;;;;;4953644;28;20030;-95
2022/10/22 13:25:29;;;;;;;20.10;4.13;;;;;;;;;;4947499;28;20514;-95
2022/10/22 13:27:57;;;;;;;8.05;3.25;;;;;;;;;;4952134;28;20036;-95
2022/10/22 13:30:25;;;;;;;14.40;3.30;;;;;;;;;;4946943;28;20078;-95
2022/10/22 13:32:53;;;;;;;8.52;3.30;;;;;;;;;;4947564;28;20102;-95
2022/10/22 13:35:21;;;;;;;12.40;3.53;;;;;;;;;;4950225;28;20070;-95
2022/10/22 13:37:47;;;;;;;12.10;3.63;;;;;;;;;;4945696;29;20027;-96
2022/10/22 13:40:13;;;;;;;10.57;3.25;;;;;;;;;;4932774;29;20046;-95
2022/10/22 13:42:39;;;;;;;14.63;3.78;;;;;;;;;;4938958;28;20047;-96
2022/10/22 13:45:12;;;;;;;7.85;2.72;;;;;;;;;;4949825;28;20036;-95
2022/10/22 13:47:52;;;;;;;7.18;2.50;;;;;;;;;;4945490;28;20050;-96
2022/10/22 13:50:19;;;;;;;11.00;3.08;;;;;;;;;;4965289;28;20372;-95
2022/10/22 13:52:56;;;;;;;11.75;2.58;;;;;;;;;;4951922;28;20043;-96
2022/10/22 13:55:24;;;;;;;11.05;2.47;;;;;;;;;;4946230;29;20035;-95
2022/10/22 13:57:52;;;;;;;6.72;2.00;;;;;;;;;;4972947;28;20057;-94
2022/10/22 14:00:19;;;;;;;14.32;3.15;;;;;;;;;;4949319;28;20063;-95
2022/10/22 14:02:47;;;;;;;10.32;3.08;;;;;;;;;;4948007;28;20455;-96
2022/10/22 14:05:16;;;;;;;8.02;2.17;;;;;;;;;;4950812;28;20513;-95
2022/10/22 14:07:42;;;;;;;14.75;2.10;;;;;;;;;;4954887;28;20098;-95
2022/10/22 14:10:19;;;;;;;7.20;2.38;;;;;;;;;;4933948;28;20050;-94
2022/10/22 14:12:45;;;;;;;9.48;2.63;;;;;;;;;;4948947;28;20038;-95
2022/10/22 14:15:13;;;;;;;10.75;2.58;;;;;;;;;;4964176;28;20031;-95
2022/10/22 14:17:41;;;;;;;13.25;2.25;;;;;;;;;;4972068;28;20138;-95
2022/10/22 14:20:09;;;;;;;13.13;2.97;;;;;;;;;;4933547;28;20075;-95
2022/10/22 14:22:35;;;;;;;7.75;2.63;;;;;;;;;;4949835;28;20030;-95
2022/10/22 14:25:01;;;;;;;6.00;2.20;;;;;;;;;;4935070;28;20042;-96
2022/10/22 14:27:30;;;;;;;4.60;1.88;;;;;;;;;;4952801;28;20038;-96
2022/10/22 14:29:56;;;;;;;5.53;1.52;;;;;;;;;;4926744;28;20090;-95
2022/10/22 14:32:24;;;;;;;7.80;2.50;;;;;;;;;;4930632;29;20563;-95
2022/10/22 14:34:52;;;;;;;2.00;1.23;;;;;;;;;;4948287;28;20114;-96
2022/10/22 14:37:19;;;;;;;7.35;1.52;;;;;;;;;;4948739;28;20039;-95
2022/10/22 14:39:51;;;;;;;7.60;1.60;;;;;;;;;;4947561;28;20114;-95
2022/10/22 14:42:18;;;;;;;5.80;1.73;;;;;;;;;;4955876;28;20035;-95
2022/10/22 14:44:45;;;;;;;14.18;2.03;;;;;;;;;;4937337;28;20038;-95
2022/10/22 14:47:11;;;;;;;8.30;2.10;;;;;;;;;;4931696;28;20411;-95
2022/10/22 14:49:37;;;;;;;8.10;1.55;;;;;;;;;;4930446;28;20035;-95
2022/10/22 14:52:03;;;;;;;5.43;1.38;;;;;;;;;;4929842;28;20043;-95
2022/10/22 14:54:29;;;;;;;9.52;1.60;;;;;;;;;;4946257;28;20070;-95
2022/10/22 14:56:55;;;;;;;6.15;1.42;;;;;;;;;;4946676;29;20293;-95
2022/10/22 14:59:21;;;;;;;6.22;1.17;;;;;;;;;;4947103;28;20036;-96
2022/10/22 15:01:48;;;;;;;7.72;1.23;;;;;;;;;;4951579;28;20027;-96